Terminal Aerodrome Forecast
Issued by NWS Grand Forks, ND

Home | Current Version | Previous Version | Graphics & Text | Print | Product List | Glossary On
Versions: 1 2 3 4 5 6 7 8 9 10 11 12 13 14 15 16 17 18 19 20 21 22
000
FTUS43 KFGF 221400 AAA
TAFFAR
TAF AMD
KFAR 221400Z 2214/2312 34006KT 4SM BR OVC002
      TEMPO 2214/2218 OVC005
     FM221800 36007KT P6SM BKN015
     FM230300 36008KT P6SM BKN012=

USA.gov is the U.S. government's official web portal to all federal, state and local government web resources and services.